This demonstration page uses our WeatherBlox Daily Observations layout. Learn more.

Left ArrowRight Arrow

Hourly Observations for September 14, 2017

Temp ( °F °C ) Dew Point ( °F °C ) Humidity (%) Winds ( mph kmh ) Pressure ( in mb ) Visibility ( mi km ) Precip ( " mm )
12:54 am 00:54 Partly Cloudy 70 21.1 58 14.4 66 66 S 7 11 29.69 1006 10 16.0934 0 0
1:49 am 01:49 Partly Cloudy with Thunderstorms 72 22 57 14 61 61 S 10 17 29.68 1005 10 16.0934 0 0
1:54 am 01:54 Mostly Cloudy with Thunderstorms 71 21.7 58 14.4 63 63 S 9 15 29.7 1006 10 16.0934 0 0
2:04 am 02:04 Mostly Cloudy 71 21.7 59 15 66 66 S 7 11 29.68 1005 10 16.0934 0 0
2:54 am 02:54 Mostly Cloudy 71 21.7 58 14.4 63 63 SSE 8 13 29.7 1006 10 16.0934 0 0
3:54 am 03:54 Partly Cloudy 71 21.7 57 13.9 61 61 SE 7 11 29.71 1006 10 16.0934 0 0
4:54 am 04:54 Clear 68 20 55 12.8 63 63 SSE 10 17 29.7 1006 10 16.0934 0 0
5:54 am 05:54 Clear 66 18.9 56 13.3 70 70 SSE 10 17 29.7 1006 10 16.0934 0 0
6:54 am 06:54 Clear 65 18.3 56 13.3 73 73 S 8 13 29.71 1006 10 16.0934 0 0
7:54 am 07:54 Sunny 70 21.1 54 12.2 57 57 S 15 24 29.7 1006 10 16.0934 0 0
8:54 am 08:54 Sunny 74 23.3 55 12.8 52 52 SSW 14 22 29.7 1006 10 16.0934 0 0
9:54 am 09:54 Sunny 78 25.6 56 13.3 47 47 S 13 20 29.7 1006 10 16.0934 0 0
10:54 am 10:54 Sunny 83 28.3 55 12.8 38 38 SSW 18 30 29.69 1005 10 16.0934 0 0
11:54 am 11:54 Sunny 89 31.7 56 13.3 33 33 SSW 18 30 29.68 1005 10 16.0934 0 0
12:54 pm 12:54 Sunny 93 33.9 54 12.2 27 27 SSW 24 39 29.67 1005 10 16.0934 0 0
1:54 pm 13:54 Sunny 91 32.8 53 11.7 27 27 SSW 24 39 29.66 1004 10 16.0934 0 0
2:54 pm 14:54 Sunny 94 34.4 52 11.1 24 24 SSW 23 37 29.64 1004 10 16.0934 0 0
3:54 pm 15:54 Sunny 95 35 51 10.6 23 23 SSW 22 35 29.63 1003 10 16.0934 0 0
4:54 pm 16:54 Sunny 94 34.4 51 10.6 23 23 SSW 21 33 29.63 1003 10 16.0934 0 0
5:54 pm 17:54 Sunny 93 33.9 54 12.2 27 27 S 15 24 29.63 1004 10 16.0934 0 0
6:54 pm 18:54 Sunny 87 30.6 55 12.8 34 34 S 10 17 29.65 1004 10 16.0934 0 0
7:54 pm 19:54 Clear 81 27.2 55 12.8 41 41 SSE 10 17 29.65 1004 10 16.0934 0 0
8:54 pm 20:54 Clear 80 26.7 53 11.7 39 39 S 13 20 29.67 1005 10 16.0934 0 0
9:54 pm 21:54 Clear 78 25.6 54 12.2 43 43 S 14 22 29.68 1005 10 16.0934 0 0
10:54 pm 22:54 Clear 76 24.4 55 12.8 48 48 S 10 17 29.7 1006 10 16.0934 0 0
11:54 pm 23:54 Clear 75 23.9 56 13.3 52 52 S 12 19 29.7 1006 10 16.0934 0 0

Powered by AerisWeather